createdAt,value
2019-04-26T00:00:15.900Z,98.70
2019-04-26T00:01:43.729Z,98.70
2019-04-26T00:03:10.322Z,98.80
2019-04-26T00:04:36.048Z,98.80
2019-04-26T00:06:01.845Z,98.70
2019-04-26T00:07:27.460Z,98.60
2019-04-26T00:09:10.942Z,98.50
2019-04-26T00:10:59.250Z,98.50
2019-04-26T00:12:37.988Z,98.50
2019-04-26T00:14:28.851Z,98.50
2019-04-26T00:16:26.739Z,98.60
2019-04-26T00:17:58.583Z,98.50
2019-04-26T00:19:24.003Z,98.50
2019-04-26T00:20:49.869Z,98.50
2019-04-26T00:22:15.520Z,98.60
2019-04-26T00:23:40.960Z,98.40
2019-04-26T00:25:07.163Z,98.40
2019-04-26T00:26:32.710Z,98.30
2019-04-26T00:27:58.278Z,98.20
2019-04-26T00:29:23.895Z,98.00
2019-04-26T00:30:49.368Z,98.00
2019-04-26T00:32:15.053Z,98.10
2019-04-26T00:33:40.675Z,98.10
2019-04-26T00:35:06.635Z,97.70
2019-04-26T00:36:35.969Z,98.30
2019-04-26T00:38:02.984Z,97.80
2019-04-26T00:39:28.463Z,97.70
2019-04-26T00:40:54.994Z,97.60
2019-04-26T00:42:20.804Z,97.60
2019-04-26T00:43:46.593Z,97.50
2019-04-26T00:45:12.501Z,97.50
2019-04-26T00:46:43.156Z,97.50
2019-04-26T00:48:10.133Z,97.40
2019-04-26T00:49:43.568Z,97.50
2019-04-26T00:51:04.843Z,97.30
2019-04-26T00:52:30.987Z,97.30
2019-04-26T00:53:56.943Z,97.20
2019-04-26T00:55:23.876Z,97.20
2019-04-26T00:56:50.542Z,97.20
2019-04-26T00:58:16.451Z,97.20
2019-04-26T00:59:42.420Z,97.30
2019-04-26T01:01:08.272Z,97.20
2019-04-26T01:02:43.411Z,97.20
2019-04-26T01:04:10.385Z,97.20
2019-04-26T01:05:37.595Z,97.10
2019-04-26T01:07:03.046Z,97.10
2019-04-26T01:08:28.562Z,97.00
2019-04-26T01:09:54.116Z,97.00
2019-04-26T01:11:19.795Z,97.30
2019-04-26T01:12:45.312Z,97.10
2019-04-26T01:14:10.846Z,97.10
2019-04-26T01:15:36.623Z,97.10
2019-04-26T01:17:02.168Z,97.00
2019-04-26T01:18:31.305Z,96.90
2019-04-26T01:19:57.633Z,96.90
2019-04-26T01:21:26.899Z,96.60
2019-04-26T01:22:56.047Z,96.50
2019-04-26T01:24:25.400Z,96.50
2019-04-26T01:26:07.778Z,96.30
2019-04-26T01:27:35.475Z,96.20
2019-04-26T01:29:05.843Z,96.20
2019-04-26T01:30:35.700Z,96.20
2019-04-26T01:32:10.199Z,96.20
2019-04-26T01:33:38.051Z,96.30
2019-04-26T01:35:03.790Z,96.30
2019-04-26T01:36:31.324Z,96.20
2019-04-26T01:37:57.625Z,95.90
2019-04-26T01:39:24.607Z,95.60
2019-04-26T01:40:52.359Z,95.60
2019-04-26T01:42:28.428Z,95.60
2019-04-26T01:44:03.523Z,95.50
2019-04-26T01:45:55.463Z,95.50
2019-04-26T01:47:22.150Z,95.50
2019-04-26T01:48:56.890Z,95.40
2019-04-26T01:50:26.115Z,95.30
2019-04-26T01:51:57.978Z,95.30
2019-04-26T01:53:24.621Z,95.20
2019-04-26T01:54:50.425Z,95.20
2019-04-26T01:56:18.078Z,94.80
2019-04-26T01:57:44.447Z,94.80
2019-04-26T01:59:13.525Z,94.70
2019-04-26T02:00:49.862Z,94.60
2019-04-26T02:02:37.492Z,94.70
2019-04-26T02:04:06.334Z,94.70
2019-04-26T02:05:32.091Z,94.60
2019-04-26T02:06:57.561Z,94.50
2019-04-26T02:08:24.523Z,94.40
2019-04-26T02:09:56.818Z,94.10
2019-04-26T02:11:23.990Z,94.20
2019-04-26T02:12:50.962Z,94.10
2019-04-26T02:14:31.079Z,94.10
2019-04-26T02:15:57.615Z,94.10
2019-04-26T02:17:24.493Z,94.10
2019-04-26T02:18:50.390Z,94.20
2019-04-26T02:20:37.576Z,94.20
2019-04-26T02:22:16.478Z,94.10
2019-04-26T02:23:53.700Z,94.10
2019-04-26T02:25:19.358Z,94.00
2019-04-26T02:26:48.167Z,93.90
2019-04-26T02:28:13.827Z,93.90
2019-04-26T02:29:39.285Z,94.00
2019-04-26T02:31:04.827Z,94.00
2019-04-26T02:32:32.749Z,94.00
2019-04-26T02:33:59.104Z,94.00
2019-04-26T02:35:26.555Z,93.90
2019-04-26T02:36:58.440Z,93.80
2019-04-26T02:38:22.440Z,93.60
2019-04-26T02:39:48.105Z,93.60
2019-04-26T02:41:14.327Z,93.60
2019-04-26T02:42:43.211Z,93.50
2019-04-26T02:44:13.206Z,93.40
2019-04-26T02:46:08.113Z,93.50
2019-04-26T02:47:54.654Z,93.40
2019-04-26T02:49:45.366Z,93.50
2019-04-26T02:51:17.174Z,93.40
2019-04-26T02:52:57.012Z,93.30
2019-04-26T02:54:47.907Z,93.30
2019-04-26T02:56:23.149Z,93.30
2019-04-26T02:57:52.617Z,93.30
2019-04-26T02:59:47.044Z,93.20
2019-04-26T03:01:17.795Z,93.10
2019-04-26T03:02:50.039Z,93.00
2019-04-26T03:04:16.133Z,93.10
2019-04-26T03:05:43.715Z,93.00
2019-04-26T03:07:22.613Z,92.90
2019-04-26T03:08:54.002Z,92.70
2019-04-26T03:10:22.877Z,92.80
2019-04-26T03:11:54.168Z,92.90
2019-04-26T03:13:32.274Z,92.90
2019-04-26T03:15:19.135Z,92.70
2019-04-26T03:17:10.518Z,92.70
2019-04-26T03:18:53.739Z,92.70
2019-04-26T03:20:26.180Z,92.70
2019-04-26T03:22:17.760Z,92.60
2019-04-26T03:23:57.614Z,92.60
2019-04-26T03:25:25.499Z,92.60
2019-04-26T03:27:44.072Z,92.50
2019-04-26T03:29:20.616Z,92.60
2019-04-26T03:31:48.570Z,92.80
2019-04-26T03:33:45.249Z,92.70
2019-04-26T03:35:55.936Z,92.80
2019-04-26T03:37:46.026Z,92.90
2019-04-26T03:39:29.232Z,92.90
2019-04-26T03:41:08.329Z,92.90
2019-04-26T03:42:52.766Z,92.90
2019-04-26T03:44:58.737Z,93.00
2019-04-26T03:46:37.584Z,93.00
2019-04-26T03:48:16.807Z,93.10
2019-04-26T03:50:19.927Z,93.20
2019-04-26T03:52:12.060Z,93.20
2019-04-26T03:53:50.631Z,93.30
2019-04-26T03:56:12.713Z,93.40
2019-04-26T03:57:50.108Z,93.50
2019-04-26T03:59:35.192Z,93.60
2019-04-26T04:01:08.025Z,93.80
2019-04-26T04:03:00.118Z,94.00
2019-04-26T04:04:46.735Z,94.10
2019-04-26T04:06:19.431Z,94.10
2019-04-26T04:07:52.170Z,94.20
2019-04-26T04:09:18.077Z,94.30
2019-04-26T04:10:55.512Z,94.40
2019-04-26T04:13:03.590Z,94.40
2019-04-26T04:14:54.871Z,94.50
2019-04-26T04:16:39.339Z,94.60
2019-04-26T04:18:10.745Z,94.70
2019-04-26T04:20:16.440Z,94.80
2019-04-26T04:21:56.108Z,94.90
2019-04-26T04:23:51.892Z,94.90
2019-04-26T04:25:25.418Z,95.00
2019-04-26T04:27:15.555Z,95.20
2019-04-26T04:28:54.191Z,95.20
2019-04-26T04:30:56.439Z,95.40
2019-04-26T04:32:31.695Z,95.40
2019-04-26T04:34:13.288Z,95.60
2019-04-26T04:35:47.874Z,95.70
2019-04-26T04:37:26.115Z,95.70
2019-04-26T04:39:40.825Z,95.80
2019-04-26T04:41:38.216Z,95.80
2019-04-26T04:43:49.256Z,95.80
2019-04-26T04:45:58.740Z,95.80
2019-04-26T04:47:34.941Z,95.80
2019-04-26T04:49:25.984Z,95.80
2019-04-26T04:51:03.218Z,95.90
2019-04-26T04:52:37.663Z,95.90
2019-04-26T04:54:25.042Z,95.80
2019-04-26T04:56:25.509Z,95.70
2019-04-26T04:58:07.461Z,95.70
2019-04-26T04:59:54.117Z,95.80
2019-04-26T05:02:46.670Z,95.90
2019-04-26T05:04:25.029Z,95.90
2019-04-26T05:06:20.586Z,96.00
2019-04-26T05:08:14.616Z,96.00
2019-04-26T05:09:52.446Z,96.00
2019-04-26T05:11:28.144Z,95.90
2019-04-26T05:13:08.840Z,96.00
2019-04-26T05:15:16.429Z,95.90
2019-04-26T05:17:36.906Z,95.90
2019-04-26T05:19:29.635Z,95.90
2019-04-26T05:21:19.843Z,95.90
2019-04-26T05:23:20.660Z,95.90
2019-04-26T05:25:41.270Z,95.90
2019-04-26T05:27:46.893Z,95.80
2019-04-26T05:29:43.533Z,95.70
2019-04-26T05:31:35.643Z,95.60
2019-04-26T05:33:47.766Z,95.60
2019-04-26T05:35:44.485Z,95.60
2019-04-26T05:37:55.109Z,95.60
2019-04-26T05:39:47.720Z,95.40
2019-04-26T05:41:59.302Z,95.30
2019-04-26T05:44:18.096Z,94.90
2019-04-26T05:46:35.473Z,94.80
2019-04-26T05:48:37.716Z,94.90
2019-04-26T05:50:45.376Z,94.90
2019-04-26T05:53:19.507Z,94.80
2019-04-26T05:55:32.927Z,94.80
2019-04-26T05:57:10.979Z,94.80
2019-04-26T05:59:12.228Z,94.70
2019-04-26T06:01:52.042Z,94.60
2019-04-26T06:04:10.951Z,94.60
2019-04-26T06:06:15.527Z,94.00
2019-04-26T06:08:31.266Z,93.90
2019-04-26T06:10:39.884Z,93.40
2019-04-26T06:12:15.755Z,93.30
2019-04-26T06:14:48.224Z,92.90
2019-04-26T06:16:35.017Z,92.30
2019-04-26T06:18:21.361Z,92.00
2019-04-26T06:20:05.184Z,90.80
2019-04-26T06:21:53.869Z,90.30
2019-04-26T06:23:57.960Z,90.30
2019-04-26T06:25:46.515Z,87.70
2019-04-26T06:27:48.859Z,85.70
2019-04-26T06:29:32.664Z,86.20
2019-04-26T06:31:26.167Z,86.30
2019-04-26T06:33:15.288Z,86.10
2019-04-26T06:35:03.506Z,85.70
2019-04-26T06:36:42.761Z,86.00
2019-04-26T06:39:04.590Z,85.70
2019-04-26T06:40:54.594Z,84.40
2019-04-26T06:43:03.236Z,83.90
2019-04-26T06:44:33.440Z,83.50
2019-04-26T06:47:04.025Z,83.40
2019-04-26T06:48:49.882Z,83.30
2019-04-26T06:50:29.503Z,81.40
2019-04-26T06:52:04.983Z,79.70
2019-04-26T06:53:57.138Z,78.80
2019-04-26T06:55:33.442Z,79.10
2019-04-26T06:58:01.008Z,76.20
2019-04-26T06:59:51.673Z,75.90
2019-04-26T07:01:42.552Z,77.00
2019-04-26T07:03:47.082Z,77.10
2019-04-26T07:05:22.460Z,77.30
2019-04-26T07:07:14.067Z,76.80
2019-04-26T07:09:00.551Z,75.50
2019-04-26T07:11:35.352Z,75.30
2019-04-26T07:13:29.822Z,75.20
2019-04-26T07:15:34.564Z,73.80
2019-04-26T07:17:12.981Z,73.00
2019-04-26T07:19:16.490Z,71.80
2019-04-26T07:21:00.594Z,72.90
2019-04-26T07:22:57.265Z,71.30
2019-04-26T07:25:05.943Z,71.20
2019-04-26T07:27:15.471Z,70.00
2019-04-26T07:29:32.180Z,69.80
2019-04-26T07:31:10.777Z,69.00
2019-04-26T07:33:15.591Z,68.60
2019-04-26T07:35:06.618Z,69.00
2019-04-26T07:37:08.876Z,68.40
2019-04-26T07:39:19.509Z,68.00
2019-04-26T07:41:41.834Z,67.70
2019-04-26T07:43:37.613Z,66.80
2019-04-26T07:45:42.558Z,65.70
2019-04-26T07:48:20.205Z,66.20
2019-04-26T07:50:16.037Z,66.30
2019-04-26T07:52:18.512Z,65.40
2019-04-26T07:54:03.900Z,64.70
2019-04-26T07:55:39.370Z,65.70
2019-04-26T07:57:40.211Z,65.90
2019-04-26T07:59:58.639Z,66.00
2019-04-26T08:01:51.220Z,64.60
2019-04-26T08:03:32.751Z,62.60
2019-04-26T08:05:07.481Z,62.30
2019-04-26T08:07:01.077Z,63.30
2019-04-26T08:08:31.724Z,63.20
2019-04-26T08:10:14.687Z,61.40
2019-04-26T08:11:50.491Z,62.40
2019-04-26T08:13:18.956Z,62.10
2019-04-26T08:15:15.639Z,62.30
2019-04-26T08:16:58.499Z,61.90
2019-04-26T08:18:48.313Z,62.90
2019-04-26T08:20:50.968Z,61.70
2019-04-26T08:22:24.323Z,61.40
2019-04-26T08:23:57.813Z,61.00
2019-04-26T08:25:25.890Z,62.20
2019-04-26T08:27:23.637Z,62.40
2019-04-26T08:28:51.328Z,62.70
2019-04-26T08:30:19.345Z,63.20
2019-04-26T08:31:47.612Z,64.80
2019-04-26T08:33:16.225Z,64.70
2019-04-26T08:34:44.881Z,64.60
2019-04-26T08:36:14.646Z,64.60
2019-04-26T08:37:51.912Z,65.30
2019-04-26T08:39:32.546Z,65.20
2019-04-26T08:40:54.158Z,64.50
2019-04-26T08:42:25.027Z,63.90
2019-04-26T08:44:08.131Z,63.70
2019-04-26T08:46:13.051Z,64.60
2019-04-26T08:48:03.990Z,64.90
2019-04-26T08:49:47.763Z,65.00
2019-04-26T08:51:20.651Z,65.80
2019-04-26T08:52:48.655Z,67.30
2019-04-26T08:54:22.478Z,65.70
2019-04-26T08:55:49.864Z,66.80
2019-04-26T08:57:16.925Z,67.10
2019-04-26T08:58:45.407Z,67.00
2019-04-26T09:00:27.388Z,67.10
2019-04-26T09:02:13.460Z,66.90
2019-04-26T09:03:56.083Z,68.00
2019-04-26T09:05:45.639Z,68.80
2019-04-26T09:07:18.280Z,70.50
2019-04-26T09:08:46.560Z,71.80
2019-04-26T09:10:15.331Z,72.60
2019-04-26T09:11:42.025Z,73.40
2019-04-26T09:13:10.561Z,73.90
2019-04-26T09:14:37.910Z,74.30
2019-04-26T09:16:09.704Z,74.80
2019-04-26T09:17:35.255Z,76.10
2019-04-26T09:19:00.737Z,75.80
2019-04-26T09:20:29.421Z,75.70
2019-04-26T09:22:12.766Z,75.30
2019-04-26T09:23:51.963Z,75.60
2019-04-26T09:25:39.738Z,76.30
2019-04-26T09:27:38.169Z,76.20
2019-04-26T09:29:16.064Z,75.70
2019-04-26T09:31:09.682Z,75.40
2019-04-26T09:32:42.787Z,75.30
2019-04-26T09:34:10.396Z,75.60
2019-04-26T09:35:36.454Z,75.50
2019-04-26T09:37:02.043Z,75.20
2019-04-26T09:38:27.747Z,75.10
2019-04-26T09:39:53.209Z,74.70
2019-04-26T09:41:19.020Z,74.60
2019-04-26T09:43:02.782Z,74.50
2019-04-26T09:44:33.885Z,74.80
2019-04-26T09:46:18.204Z,74.90
2019-04-26T09:47:48.768Z,74.70
2019-04-26T09:49:41.266Z,74.30
2019-04-26T09:51:07.244Z,74.40
2019-04-26T09:52:38.625Z,74.30
2019-04-26T09:54:04.330Z,74.50
2019-04-26T09:55:35.429Z,74.80
2019-04-26T09:56:57.071Z,75.30
2019-04-26T09:58:22.574Z,75.60
2019-04-26T09:59:48.024Z,76.20
2019-04-26T10:01:13.732Z,76.00
2019-04-26T10:02:39.178Z,76.50
2019-04-26T10:04:04.781Z,76.90
2019-04-26T10:05:30.365Z,76.50
2019-04-26T10:06:59.512Z,74.10
2019-04-26T10:08:23.188Z,73.00
2019-04-26T10:09:51.635Z,73.40
2019-04-26T10:11:17.397Z,72.10
2019-04-26T10:12:53.664Z,71.50
2019-04-26T10:14:26.480Z,70.00
2019-04-26T10:16:16.811Z,71.70
2019-04-26T10:17:42.441Z,71.70
2019-04-26T10:19:13.764Z,71.10
2019-04-26T10:20:39.170Z,74.60
2019-04-26T10:22:04.777Z,77.30
2019-04-26T10:23:31.287Z,78.10
2019-04-26T10:24:56.721Z,76.70
2019-04-26T10:26:23.170Z,76.50
2019-04-26T10:27:49.555Z,77.40
2019-04-26T10:29:15.244Z,77.60
2019-04-26T10:30:42.417Z,77.00
2019-04-26T10:32:08.452Z,77.00
2019-04-26T10:33:36.505Z,76.80
2019-04-26T10:35:01.099Z,77.60
2019-04-26T10:36:30.137Z,78.90
2019-04-26T10:37:53.961Z,80.00
2019-04-26T10:39:20.554Z,81.10
2019-04-26T10:40:45.984Z,81.50
2019-04-26T10:42:11.480Z,80.80
2019-04-26T10:43:36.952Z,82.10
2019-04-26T10:45:02.516Z,82.10
2019-04-26T10:46:29.309Z,81.30
2019-04-26T10:47:55.303Z,80.60
2019-04-26T10:49:43.863Z,79.20
2019-04-26T10:51:09.880Z,79.30
2019-04-26T10:52:55.536Z,79.60
2019-04-26T10:54:20.590Z,79.00
2019-04-26T10:56:02.616Z,78.60
2019-04-26T10:57:35.716Z,78.60
2019-04-26T10:59:31.701Z,77.10
2019-04-26T11:00:57.725Z,77.60
2019-04-26T11:02:23.720Z,78.50
2019-04-26T11:03:49.322Z,79.60
2019-04-26T11:05:18.224Z,79.60
2019-04-26T11:06:42.237Z,79.60
2019-04-26T11:08:08.062Z,80.20
2019-04-26T11:09:33.543Z,80.60
2019-04-26T11:10:59.518Z,79.90
2019-04-26T11:12:25.073Z,79.80
2019-04-26T11:13:50.513Z,79.60
2019-04-26T11:15:16.785Z,79.00
2019-04-26T11:16:42.355Z,80.10
2019-04-26T11:18:08.043Z,80.80
2019-04-26T11:19:35.532Z,80.50
2019-04-26T11:21:00.718Z,80.10
2019-04-26T11:22:29.254Z,78.20
2019-04-26T11:23:53.533Z,78.60
2019-04-26T11:25:19.305Z,78.70
2019-04-26T11:26:45.007Z,79.20
2019-04-26T11:28:10.626Z,79.50
2019-04-26T11:29:36.126Z,80.50
2019-04-26T11:31:01.859Z,81.00
2019-04-26T11:32:27.350Z,81.30
2019-04-26T11:34:04.442Z,81.80
2019-04-26T11:35:20.218Z,82.10
2019-04-26T11:36:46.065Z,82.30
2019-04-26T11:38:12.140Z,83.00
2019-04-26T11:39:40.587Z,83.20
2019-04-26T11:41:06.788Z,83.30
2019-04-26T11:42:31.928Z,83.60
2019-04-26T11:43:57.723Z,84.50
2019-04-26T11:45:23.384Z,84.60
2019-04-26T11:46:48.955Z,84.10
2019-04-26T11:48:14.452Z,80.10
2019-04-26T11:49:41.494Z,81.70
2019-04-26T11:51:07.335Z,83.10
2019-04-26T11:52:36.035Z,83.40
2019-04-26T11:54:00.078Z,84.00
2019-04-26T11:55:29.771Z,84.10
2019-04-26T11:56:52.821Z,84.30
2019-04-26T11:58:22.654Z,83.90
2019-04-26T11:59:45.370Z,82.70
2019-04-26T12:01:12.572Z,80.80
2019-04-26T12:02:38.683Z,81.70
2019-04-26T12:04:17.369Z,82.50
2019-04-26T12:05:48.068Z,83.60
2019-04-26T12:07:21.338Z,84.00
2019-04-26T12:08:53.737Z,83.90
2019-04-26T12:10:19.497Z,83.90
2019-04-26T12:11:50.957Z,82.50
2019-04-26T12:13:12.259Z,80.80
2019-04-26T12:14:37.806Z,82.00
2019-04-26T12:16:03.224Z,82.70
2019-04-26T12:17:31.211Z,83.10
2019-04-26T12:18:55.950Z,82.60
2019-04-26T12:20:22.392Z,82.90
2019-04-26T12:21:48.970Z,83.20
2019-04-26T12:23:20.334Z,82.60
2019-04-26T12:24:41.797Z,82.60
2019-04-26T12:26:07.314Z,80.90
2019-04-26T12:27:32.821Z,80.20
2019-04-26T12:28:58.452Z,80.60
2019-04-26T12:30:26.737Z,81.70
2019-04-26T12:32:01.671Z,81.00
2019-04-26T12:33:38.988Z,80.50
2019-04-26T12:35:04.021Z,79.30
2019-04-26T12:36:41.810Z,78.90
2019-04-26T12:38:09.265Z,78.70
2019-04-26T12:39:38.301Z,78.80
2019-04-26T12:41:04.933Z,76.20
2019-04-26T12:42:33.610Z,74.80
2019-04-26T12:44:05.537Z,73.30
2019-04-26T12:45:52.900Z,74.70
2019-04-26T12:47:30.517Z,74.20
2019-04-26T12:48:55.957Z,75.20
2019-04-26T12:50:21.526Z,76.20
2019-04-26T12:51:48.758Z,77.00
2019-04-26T12:53:17.887Z,76.60
2019-04-26T12:54:43.042Z,76.60
2019-04-26T12:56:09.386Z,76.10
2019-04-26T12:57:36.557Z,76.50
2019-04-26T12:59:02.037Z,76.60
2019-04-26T13:00:32.969Z,76.90
2019-04-26T13:02:05.540Z,77.80
2019-04-26T13:03:29.298Z,78.60
2019-04-26T13:04:52.557Z,76.50
2019-04-26T13:06:19.867Z,75.20
2019-04-26T13:07:47.666Z,75.80
2019-04-26T13:09:22.040Z,76.00
2019-04-26T13:11:07.929Z,75.00
2019-04-26T13:12:51.094Z,74.20
2019-04-26T13:14:27.283Z,76.10
2019-04-26T13:16:16.186Z,77.80
2019-04-26T13:17:52.456Z,77.30
2019-04-26T13:19:19.864Z,77.70
2019-04-26T13:20:45.519Z,78.00
2019-04-26T13:22:12.607Z,77.80
2019-04-26T13:23:38.120Z,77.80
2019-04-26T13:25:04.784Z,77.10
2019-04-26T13:26:37.672Z,76.40
2019-04-26T13:28:03.308Z,77.00
2019-04-26T13:29:48.302Z,76.10
2019-04-26T13:31:14.933Z,76.40
2019-04-26T13:32:44.930Z,76.50
2019-04-26T13:34:10.369Z,76.80
2019-04-26T13:35:35.956Z,76.70
2019-04-26T13:37:03.000Z,76.70
2019-04-26T13:38:29.065Z,76.00
2019-04-26T13:39:55.328Z,74.40
2019-04-26T13:41:22.187Z,72.70
2019-04-26T13:42:51.444Z,72.40
2019-04-26T13:44:16.759Z,74.70
2019-04-26T13:46:25.356Z,74.60
2019-04-26T13:48:12.572Z,73.90
2019-04-26T13:49:53.447Z,75.00
2019-04-26T13:51:20.110Z,74.00
2019-04-26T13:52:45.905Z,75.20
2019-04-26T13:54:11.405Z,75.50
2019-04-26T13:56:01.922Z,75.60
2019-04-26T13:57:40.237Z,76.30
2019-04-26T13:59:44.384Z,75.30
2019-04-26T14:01:14.573Z,74.70
2019-04-26T14:02:54.031Z,75.50
2019-04-26T14:04:26.297Z,76.40
2019-04-26T14:06:10.409Z,76.70
2019-04-26T14:07:55.313Z,74.00
2019-04-26T14:09:38.433Z,73.70
2019-04-26T14:11:14.226Z,74.60
2019-04-26T14:12:56.057Z,75.00
2019-04-26T14:14:34.233Z,75.10
2019-04-26T14:16:05.170Z,72.80
2019-04-26T14:17:37.660Z,73.40
2019-04-26T14:19:14.830Z,74.30
2019-04-26T14:20:37.544Z,72.70
2019-04-26T14:22:06.701Z,72.50
2019-04-26T14:23:49.485Z,72.10
2019-04-26T14:25:18.868Z,69.70
2019-04-26T14:26:57.651Z,67.80
2019-04-26T14:28:24.973Z,69.10
2019-04-26T14:29:50.888Z,66.50
2019-04-26T14:31:18.117Z,67.00
2019-04-26T14:32:43.730Z,66.90
2019-04-26T14:34:11.950Z,64.90
2019-04-26T14:35:39.848Z,64.00
2019-04-26T14:37:11.054Z,63.30
2019-04-26T14:38:40.038Z,63.90
2019-04-26T14:40:16.564Z,63.00
2019-04-26T14:41:29.936Z,63.80
2019-04-26T14:43:06.461Z,64.70
2019-04-26T14:44:22.637Z,64.30
2019-04-26T14:45:55.656Z,62.30
2019-04-26T14:47:17.904Z,61.90
2019-04-26T14:48:44.687Z,63.10
2019-04-26T14:50:14.595Z,63.30
2019-04-26T14:51:50.725Z,62.50
2019-04-26T14:53:12.558Z,61.30
2019-04-26T14:54:41.527Z,60.80
2019-04-26T14:56:05.751Z,59.40
2019-04-26T14:57:37.190Z,57.80
2019-04-26T14:59:08.042Z,58.00
2019-04-26T15:00:33.951Z,58.60
2019-04-26T15:02:10.428Z,57.90
2019-04-26T15:03:51.374Z,58.50
2019-04-26T15:05:30.772Z,58.60
2019-04-26T15:06:58.193Z,58.20
2019-04-26T15:08:23.915Z,58.60
2019-04-26T15:09:49.460Z,57.90
2019-04-26T15:11:15.127Z,56.70
2019-04-26T15:12:46.989Z,56.30
2019-04-26T15:14:07.951Z,57.10
2019-04-26T15:15:34.631Z,56.80
2019-04-26T15:17:00.375Z,57.00
2019-04-26T15:18:29.311Z,56.70
2019-04-26T15:19:53.879Z,56.70
2019-04-26T15:21:19.580Z,56.80
2019-04-26T15:22:48.611Z,57.30
2019-04-26T15:24:12.848Z,57.70
2019-04-26T15:25:41.405Z,56.40
2019-04-26T15:27:05.808Z,54.90
2019-04-26T15:28:32.817Z,54.90
2019-04-26T15:30:01.605Z,54.10
2019-04-26T15:31:25.894Z,54.30
2019-04-26T15:32:52.895Z,54.10
2019-04-26T15:34:19.266Z,55.90
2019-04-26T15:35:46.505Z,55.60
2019-04-26T15:37:12.885Z,55.70
2019-04-26T15:38:43.268Z,55.50
2019-04-26T15:40:31.916Z,55.80
2019-04-26T15:42:05.428Z,54.80
2019-04-26T15:43:50.271Z,54.10
2019-04-26T15:45:38.707Z,53.90
2019-04-26T15:47:19.240Z,54.80
2019-04-26T15:48:54.648Z,55.20
2019-04-26T15:50:40.998Z,55.10
2019-04-26T15:52:07.679Z,54.30
2019-04-26T15:53:35.004Z,55.20
2019-04-26T15:55:04.159Z,54.30
2019-04-26T15:56:28.371Z,54.00
2019-04-26T15:57:53.925Z,54.20
2019-04-26T15:59:22.767Z,54.10
2019-04-26T16:00:46.658Z,54.00
2019-04-26T16:02:12.669Z,53.90
2019-04-26T16:03:40.842Z,54.10
2019-04-26T16:05:05.617Z,54.60
2019-04-26T16:06:32.245Z,54.40
2019-04-26T16:08:01.834Z,53.90
2019-04-26T16:09:25.399Z,53.80
2019-04-26T16:10:50.988Z,53.40
2019-04-26T16:12:20.211Z,52.90
2019-04-26T16:13:46.644Z,52.80
2019-04-26T16:15:14.709Z,53.20
2019-04-26T16:16:38.276Z,53.60
2019-04-26T16:18:04.238Z,53.20
2019-04-26T16:19:31.676Z,52.90
2019-04-26T16:20:57.284Z,52.50
2019-04-26T16:22:25.826Z,52.10
2019-04-26T16:23:52.012Z,51.80
2019-04-26T16:25:16.946Z,52.30
2019-04-26T16:26:50.458Z,50.90
2019-04-26T16:28:30.930Z,50.70
2019-04-26T16:32:12.550Z,50.80
2019-04-26T16:33:38.960Z,51.10
2019-04-26T16:35:04.642Z,50.60
2019-04-26T16:36:30.204Z,50.90
2019-04-26T16:37:59.795Z,51.20
2019-04-26T16:39:23.825Z,51.70
2019-04-26T16:40:52.190Z,52.20
2019-04-26T16:42:16.938Z,52.70
2019-04-26T16:43:50.952Z,52.90
2019-04-26T16:45:12.293Z,53.20
2019-04-26T16:46:37.998Z,53.00
2019-04-26T16:48:03.451Z,53.10
2019-04-26T16:49:28.926Z,53.50
2019-04-26T16:50:54.372Z,52.90
2019-04-26T16:52:19.843Z,52.80
2019-04-26T16:54:02.956Z,52.70
2019-04-26T16:55:20.426Z,52.70
2019-04-26T16:56:40.157Z,53.60
2019-04-26T16:58:05.895Z,54.60
2019-04-26T16:59:32.838Z,53.00
2019-04-26T17:00:58.591Z,52.70
2019-04-26T17:02:26.488Z,53.40
2019-04-26T17:03:53.018Z,54.10
2019-04-26T17:05:23.893Z,54.50
2019-04-26T17:06:46.813Z,55.10
2019-04-26T17:08:12.968Z,55.40
2019-04-26T17:09:55.516Z,55.00
2019-04-26T17:11:05.728Z,56.00
2019-04-26T17:12:33.061Z,56.00
2019-04-26T17:14:04.106Z,56.00
2019-04-26T17:15:25.457Z,56.30
2019-04-26T17:16:53.028Z,55.90
2019-04-26T17:18:19.405Z,55.80
2019-04-26T17:19:45.101Z,55.70
2019-04-26T17:21:12.583Z,55.60
2019-04-26T17:23:01.004Z,55.20
2019-04-26T17:24:46.460Z,54.90
2019-04-26T17:26:39.975Z,55.10
2019-04-26T17:28:05.753Z,55.60
2019-04-26T17:29:31.871Z,55.40
2019-04-26T17:30:58.878Z,55.10
2019-04-26T17:32:24.476Z,55.00
2019-04-26T17:33:50.055Z,55.20
2019-04-26T17:35:15.542Z,55.40
2019-04-26T17:36:40.947Z,55.10
2019-04-26T17:38:06.390Z,55.60
2019-04-26T17:39:31.879Z,55.80
2019-04-26T17:40:57.571Z,56.00
2019-04-26T17:42:25.200Z,56.00
2019-04-26T17:43:55.970Z,55.80
2019-04-26T17:45:17.316Z,56.10
2019-04-26T17:46:42.947Z,56.50
2019-04-26T17:48:11.702Z,56.60
2019-04-26T17:49:38.361Z,56.50
2019-04-26T17:51:02.601Z,56.20
2019-04-26T17:52:34.954Z,56.10
2019-04-26T17:54:20.430Z,55.90
2019-04-26T17:55:22.475Z,56.20
2019-04-26T17:56:48.246Z,56.60
2019-04-26T17:58:17.254Z,56.80
2019-04-26T17:59:45.293Z,56.10
2019-04-26T18:01:07.964Z,56.00
2019-04-26T18:02:41.963Z,56.30
2019-04-26T18:04:00.703Z,56.30
2019-04-26T18:05:41.843Z,56.30
2019-04-26T18:07:03.018Z,56.20
2019-04-26T18:08:35.773Z,56.10
2019-04-26T18:09:47.706Z,55.90
2019-04-26T18:11:19.764Z,55.90
2019-04-26T18:12:45.966Z,55.80
2019-04-26T18:14:21.082Z,55.70
2019-04-26T18:15:46.879Z,55.10
2019-04-26T18:17:26.301Z,55.50
2019-04-26T18:19:17.016Z,55.90
2019-04-26T18:21:00.396Z,56.50
2019-04-26T18:22:34.573Z,56.40
2019-04-26T18:23:58.058Z,56.90
2019-04-26T18:25:23.583Z,56.70
2019-04-26T18:26:52.233Z,56.90
2019-04-26T18:28:17.243Z,56.40
2019-04-26T18:29:43.690Z,56.30
2019-04-26T18:31:11.151Z,56.90
2019-04-26T18:32:42.327Z,57.50
2019-04-26T18:34:04.225Z,57.90
2019-04-26T18:35:29.838Z,58.10
2019-04-26T18:36:55.420Z,58.50
2019-04-26T18:38:20.878Z,58.70
2019-04-26T18:39:46.372Z,58.90
2019-04-26T18:41:13.578Z,58.50
2019-04-26T18:42:41.889Z,58.40
2019-04-26T18:44:07.011Z,58.30
2019-04-26T18:45:32.515Z,58.20
2019-04-26T18:47:06.759Z,58.30
2019-04-26T18:48:35.459Z,58.50
2019-04-26T18:50:09.107Z,58.70
2019-04-26T18:51:34.676Z,59.10
2019-04-26T18:53:19.739Z,59.70
2019-04-26T18:55:08.261Z,60.40
2019-04-26T18:56:39.465Z,60.90
2019-04-26T18:58:06.613Z,61.30
2019-04-26T18:59:34.022Z,61.50
2019-04-26T19:01:01.683Z,62.70
2019-04-26T19:02:28.013Z,62.50
2019-04-26T19:03:54.152Z,63.00
2019-04-26T19:05:27.040Z,63.20
2019-04-26T19:06:47.424Z,63.50
2019-04-26T19:08:16.221Z,63.50
2019-04-26T19:09:58.862Z,63.90
2019-04-26T19:11:11.620Z,64.30
2019-04-26T19:12:38.682Z,64.60
2019-04-26T19:14:15.449Z,65.10
2019-04-26T19:15:51.577Z,65.60
2019-04-26T19:17:30.194Z,66.00
2019-04-26T19:19:03.288Z,66.50
2019-04-26T19:20:59.328Z,66.80
2019-04-26T19:22:25.055Z,67.70
2019-04-26T19:23:51.895Z,67.90
2019-04-26T19:25:21.487Z,68.40
2019-04-26T19:26:49.685Z,69.10
2019-04-26T19:28:12.252Z,69.30
2019-04-26T19:29:37.888Z,69.20
2019-04-26T19:31:03.447Z,70.00
2019-04-26T19:32:28.931Z,70.10
2019-04-26T19:33:56.002Z,70.70
2019-04-26T19:35:21.969Z,70.90
2019-04-26T19:36:47.574Z,71.00
2019-04-26T19:38:14.742Z,71.10
2019-04-26T19:39:40.517Z,71.20
2019-04-26T19:41:06.160Z,71.60
2019-04-26T19:42:32.479Z,71.80
2019-04-26T19:43:58.048Z,72.10
2019-04-26T19:45:45.899Z,71.90
2019-04-26T19:47:46.610Z,71.90
2019-04-26T19:49:44.338Z,72.00
2019-04-26T19:51:41.497Z,72.20
2019-04-26T19:53:17.714Z,72.60
2019-04-26T19:54:53.032Z,73.00
2019-04-26T19:56:27.456Z,73.20
2019-04-26T19:58:23.436Z,73.40
2019-04-26T19:59:48.950Z,73.60
2019-04-26T20:01:16.529Z,73.50
2019-04-26T20:02:42.105Z,73.40
2019-04-26T20:04:07.748Z,73.60
2019-04-26T20:05:36.380Z,74.00
2019-04-26T20:07:01.344Z,74.40
2019-04-26T20:08:29.406Z,74.70
2019-04-26T20:09:56.304Z,74.80
2019-04-26T20:11:21.892Z,75.40
2019-04-26T20:12:47.353Z,76.10
2019-04-26T20:14:13.128Z,76.30
2019-04-26T20:16:02.698Z,76.40
2019-04-26T20:17:24.862Z,76.30
2019-04-26T20:18:50.341Z,76.70
2019-04-26T20:20:20.974Z,76.80
2019-04-26T20:21:45.434Z,77.00
2019-04-26T20:23:12.164Z,77.30
2019-04-26T20:24:37.420Z,77.50
2019-04-26T20:26:07.260Z,77.20
2019-04-26T20:27:29.976Z,76.40
2019-04-26T20:28:55.416Z,75.60